sensor_id;sensor_type;location;lat;lon;timestamp;P1;durP1;ratioP1;P2;durP2;ratioP2
40116;SDS011;25829;50.228;18.936;2023-08-08T00:02:49;0.93;;;0.88;;
40116;SDS011;25829;50.228;18.936;2023-08-08T00:05:50;0.82;;;0.82;;
40116;SDS011;25829;50.228;18.936;2023-08-08T00:08:51;1.33;;;1.00;;
40116;SDS011;25829;50.228;18.936;2023-08-08T00:11:52;4.18;;;1.00;;
40116;SDS011;25829;50.228;18.936;2023-08-08T00:14:53;2.85;;;1.00;;
40116;SDS011;25829;50.228;18.936;2023-08-08T00:17:54;0.80;;;0.80;;
40116;SDS011;25829;50.228;18.936;2023-08-08T00:31:18;1.17;;;1.02;;
40116;SDS011;25829;50.228;18.936;2023-08-08T00:34:20;2.90;;;0.98;;
40116;SDS011;25829;50.228;18.936;2023-08-08T00:37:21;5.28;;;1.17;;
40116;SDS011;25829;50.228;18.936;2023-08-08T00:40:21;1.88;;;1.10;;
40116;SDS011;25829;50.228;18.936;2023-08-08T00:43:22;1.38;;;1.08;;
40116;SDS011;25829;50.228;18.936;2023-08-08T00:46:26;2.70;;;1.15;;
40116;SDS011;25829;50.228;18.936;2023-08-08T00:49:33;1.08;;;0.98;;
40116;SDS011;25829;50.228;18.936;2023-08-08T00:52:37;1.23;;;1.10;;
40116;SDS011;25829;50.228;18.936;2023-08-08T00:55:39;2.45;;;1.38;;
40116;SDS011;25829;50.228;18.936;2023-08-08T00:58:49;0.90;;;0.90;;
40116;SDS011;25829;50.228;18.936;2023-08-08T01:01:50;1.20;;;1.10;;
40116;SDS011;25829;50.228;18.936;2023-08-08T01:04:57;1.38;;;1.00;;
40116;SDS011;25829;50.228;18.936;2023-08-08T01:08:07;1.30;;;1.10;;
40116;SDS011;25829;50.228;18.936;2023-08-08T01:14:37;2.20;;;1.10;;
40116;SDS011;25829;50.228;18.936;2023-08-08T01:17:41;2.55;;;1.00;;
40116;SDS011;25829;50.228;18.936;2023-08-08T01:20:44;2.90;;;1.05;;
40116;SDS011;25829;50.228;18.936;2023-08-08T01:23:53;1.90;;;1.10;;
40116;SDS011;25829;50.228;18.936;2023-08-08T01:27:00;2.35;;;1.00;;
40116;SDS011;25829;50.228;18.936;2023-08-08T01:30:01;2.05;;;1.23;;
40116;SDS011;25829;50.228;18.936;2023-08-08T01:33:04;2.65;;;1.20;;
40116;SDS011;25829;50.228;18.936;2023-08-08T01:39:45;1.67;;;1.42;;
40116;SDS011;25829;50.228;18.936;2023-08-08T01:42:54;2.72;;;1.20;;
40116;SDS011;25829;50.228;18.936;2023-08-08T01:45:55;3.08;;;1.30;;
40116;SDS011;25829;50.228;18.936;2023-08-08T01:48:58;3.25;;;1.20;;
40116;SDS011;25829;50.228;18.936;2023-08-08T01:51:59;4.35;;;1.55;;
40116;SDS011;25829;50.228;18.936;2023-08-08T01:55:00;3.80;;;1.50;;
40116;SDS011;25829;50.228;18.936;2023-08-08T01:58:01;1.48;;;1.30;;
40116;SDS011;25829;50.228;18.936;2023-08-08T02:01:05;4.68;;;1.50;;
40116;SDS011;25829;50.228;18.936;2023-08-08T02:04:25;2.40;;;1.55;;
40116;SDS011;25829;50.228;18.936;2023-08-08T02:07:25;4.57;;;1.80;;
40116;SDS011;25829;50.228;18.936;2023-08-08T02:10:29;4.22;;;1.55;;
40116;SDS011;25829;50.228;18.936;2023-08-08T02:13:30;1.88;;;1.65;;
40116;SDS011;25829;50.228;18.936;2023-08-08T02:16:31;1.88;;;1.67;;
40116;SDS011;25829;50.228;18.936;2023-08-08T02:19:35;4.82;;;1.73;;
40116;SDS011;25829;50.228;18.936;2023-08-08T02:22:36;1.58;;;1.30;;
40116;SDS011;25829;50.228;18.936;2023-08-08T02:25:37;3.92;;;1.80;;
40116;SDS011;25829;50.228;18.936;2023-08-08T02:28:37;1.85;;;1.65;;
40116;SDS011;25829;50.228;18.936;2023-08-08T02:35:27;1.92;;;1.80;;
40116;SDS011;25829;50.228;18.936;2023-08-08T03:32:43;6.30;;;2.10;;
40116;SDS011;25829;50.228;18.936;2023-08-08T03:39:37;1.80;;;1.48;;
40116;SDS011;25829;50.228;18.936;2023-08-08T03:42:38;3.45;;;1.40;;
40116;SDS011;25829;50.228;18.936;2023-08-08T03:45:39;4.38;;;1.95;;
40116;SDS011;25829;50.228;18.936;2023-08-08T03:48:39;4.47;;;1.80;;
40116;SDS011;25829;50.228;18.936;2023-08-08T03:51:40;2.03;;;1.83;;
40116;SDS011;25829;50.228;18.936;2023-08-08T03:54:42;4.13;;;1.90;;
40116;SDS011;25829;50.228;18.936;2023-08-08T03:57:44;2.70;;;1.77;;
40116;SDS011;25829;50.228;18.936;2023-08-08T04:00:46;4.03;;;1.40;;
40116;SDS011;25829;50.228;18.936;2023-08-08T04:03:47;1.85;;;1.70;;
40116;SDS011;25829;50.228;18.936;2023-08-08T04:06:48;1.90;;;1.67;;
40116;SDS011;25829;50.228;18.936;2023-08-08T04:13:10;3.45;;;1.70;;
40116;SDS011;25829;50.228;18.936;2023-08-08T04:16:11;2.38;;;1.77;;
40116;SDS011;25829;50.228;18.936;2023-08-08T04:19:18;2.38;;;1.73;;
40116;SDS011;25829;50.228;18.936;2023-08-08T04:22:25;3.55;;;1.88;;
40116;SDS011;25829;50.228;18.936;2023-08-08T04:25:36;3.90;;;1.90;;
40116;SDS011;25829;50.228;18.936;2023-08-08T04:28:37;3.28;;;1.98;;
40116;SDS011;25829;50.228;18.936;2023-08-08T04:35:03;3.90;;;2.03;;
40116;SDS011;25829;50.228;18.936;2023-08-08T04:38:04;2.83;;;2.33;;
40116;SDS011;25829;50.228;18.936;2023-08-08T04:41:04;4.07;;;1.70;;
40116;SDS011;25829;50.228;18.936;2023-08-08T04:51:22;2.15;;;1.92;;
40116;SDS011;25829;50.228;18.936;2023-08-08T04:54:23;3.50;;;1.85;;
40116;SDS011;25829;50.228;18.936;2023-08-08T04:57:24;2.65;;;2.10;;
40116;SDS011;25829;50.228;18.936;2023-08-08T05:04:36;3.47;;;2.03;;
40116;SDS011;25829;50.228;18.936;2023-08-08T05:07:43;2.97;;;2.40;;
40116;SDS011;25829;50.228;18.936;2023-08-08T05:10:47;3.83;;;2.47;;
40116;SDS011;25829;50.228;18.936;2023-08-08T05:13:48;3.70;;;2.38;;
40116;SDS011;25829;50.228;18.936;2023-08-08T06:03:36;3.05;;;1.90;;
40116;SDS011;25829;50.228;18.936;2023-08-08T06:06:40;3.95;;;2.10;;
40116;SDS011;25829;50.228;18.936;2023-08-08T06:09:53;2.88;;;1.80;;
40116;SDS011;25829;50.228;18.936;2023-08-08T06:12:54;3.35;;;2.03;;
40116;SDS011;25829;50.228;18.936;2023-08-08T06:15:55;3.72;;;1.70;;
40116;SDS011;25829;50.228;18.936;2023-08-08T06:18:55;4.82;;;2.00;;
40116;SDS011;25829;50.228;18.936;2023-08-08T06:21:57;4.72;;;2.10;;
40116;SDS011;25829;50.228;18.936;2023-08-08T06:24:57;2.55;;;1.90;;
40116;SDS011;25829;50.228;18.936;2023-08-08T06:28:01;3.90;;;1.92;;
40116;SDS011;25829;50.228;18.936;2023-08-08T06:31:15;3.42;;;1.92;;
40116;SDS011;25829;50.228;18.936;2023-08-08T06:34:16;2.58;;;1.85;;
40116;SDS011;25829;50.228;18.936;2023-08-08T06:51:03;3.92;;;2.17;;
40116;SDS011;25829;50.228;18.936;2023-08-08T06:54:16;4.18;;;1.90;;
40116;SDS011;25829;50.228;18.936;2023-08-08T07:01:04;11.93;;;1.95;;
40116;SDS011;25829;50.228;18.936;2023-08-08T07:04:04;2.55;;;1.60;;
40116;SDS011;25829;50.228;18.936;2023-08-08T07:07:08;3.90;;;1.85;;
40116;SDS011;25829;50.228;18.936;2023-08-08T07:10:14;3.05;;;1.63;;
40116;SDS011;25829;50.228;18.936;2023-08-08T07:13:16;2.72;;;1.90;;
40116;SDS011;25829;50.228;18.936;2023-08-08T07:16:16;3.53;;;2.00;;
40116;SDS011;25829;50.228;18.936;2023-08-08T07:19:17;2.05;;;1.60;;
40116;SDS011;25829;50.228;18.936;2023-08-08T07:22:19;4.50;;;1.67;;
40116;SDS011;25829;50.228;18.936;2023-08-08T07:25:20;3.50;;;2.15;;
40116;SDS011;25829;50.228;18.936;2023-08-08T07:31:23;1.85;;;1.75;;
40116;SDS011;25829;50.228;18.936;2023-08-08T07:34:23;1.92;;;1.42;;
40116;SDS011;25829;50.228;18.936;2023-08-08T07:37:25;5.20;;;2.88;;
40116;SDS011;25829;50.228;18.936;2023-08-08T07:40:32;2.80;;;1.70;;
40116;SDS011;25829;50.228;18.936;2023-08-08T07:43:46;3.92;;;1.95;;
40116;SDS011;25829;50.228;18.936;2023-08-08T07:46:53;3.88;;;2.15;;
40116;SDS011;25829;50.228;18.936;2023-08-08T07:49:54;2.20;;;1.70;;
40116;SDS011;25829;50.228;18.936;2023-08-08T07:52:57;2.13;;;1.70;;
40116;SDS011;25829;50.228;18.936;2023-08-08T07:55:58;3.10;;;1.60;;
40116;SDS011;25829;50.228;18.936;2023-08-08T07:58:58;5.13;;;1.90;;
40116;SDS011;25829;50.228;18.936;2023-08-08T08:02:05;2.65;;;1.65;;
40116;SDS011;25829;50.228;18.936;2023-08-08T08:08:10;2.25;;;1.50;;
40116;SDS011;25829;50.228;18.936;2023-08-08T08:11:13;2.70;;;1.75;;
40116;SDS011;25829;50.228;18.936;2023-08-08T08:14:16;2.53;;;1.50;;
40116;SDS011;25829;50.228;18.936;2023-08-08T08:17:21;2.13;;;1.45;;
40116;SDS011;25829;50.228;18.936;2023-08-08T08:20:31;2.95;;;1.40;;
40116;SDS011;25829;50.228;18.936;2023-08-08T08:23:35;2.60;;;1.90;;
40116;SDS011;25829;50.228;18.936;2023-08-08T08:26:35;3.45;;;1.75;;
40116;SDS011;25829;50.228;18.936;2023-08-08T08:29:36;3.45;;;1.70;;
40116;SDS011;25829;50.228;18.936;2023-08-08T08:32:39;2.53;;;1.70;;
40116;SDS011;25829;50.228;18.936;2023-08-08T08:35:40;1.67;;;1.40;;
40116;SDS011;25829;50.228;18.936;2023-08-08T08:38:41;2.08;;;1.35;;
40116;SDS011;25829;50.228;18.936;2023-08-08T08:41:41;1.75;;;1.30;;
40116;SDS011;25829;50.228;18.936;2023-08-08T08:45:08;2.35;;;1.55;;
40116;SDS011;25829;50.228;18.936;2023-08-08T08:48:23;7.93;;;1.80;;
40116;SDS011;25829;50.228;18.936;2023-08-08T08:51:30;4.95;;;1.70;;
40116;SDS011;25829;50.228;18.936;2023-08-08T08:54:34;2.28;;;1.50;;
40116;SDS011;25829;50.228;18.936;2023-08-08T08:57:36;3.50;;;1.30;;
40116;SDS011;25829;50.228;18.936;2023-08-08T09:00:37;3.00;;;1.80;;
40116;SDS011;25829;50.228;18.936;2023-08-08T09:04:11;3.20;;;1.40;;
40116;SDS011;25829;50.228;18.936;2023-08-08T09:07:16;3.25;;;2.38;;
40116;SDS011;25829;50.228;18.936;2023-08-08T09:10:23;4.03;;;1.80;;
40116;SDS011;25829;50.228;18.936;2023-08-08T09:13:25;4.30;;;2.20;;
40116;SDS011;25829;50.228;18.936;2023-08-08T09:16:26;2.40;;;1.80;;
40116;SDS011;25829;50.228;18.936;2023-08-08T09:19:46;5.22;;;1.83;;
40116;SDS011;25829;50.228;18.936;2023-08-08T09:22:55;3.10;;;1.90;;
40116;SDS011;25829;50.228;18.936;2023-08-08T09:26:06;2.85;;;1.80;;
40116;SDS011;25829;50.228;18.936;2023-08-08T09:29:07;6.20;;;2.05;;
40116;SDS011;25829;50.228;18.936;2023-08-08T09:32:18;4.57;;;1.98;;
40116;SDS011;25829;50.228;18.936;2023-08-08T09:35:25;2.97;;;1.75;;
40116;SDS011;25829;50.228;18.936;2023-08-08T09:38:29;4.25;;;1.65;;
40116;SDS011;25829;50.228;18.936;2023-08-08T09:41:33;2.50;;;1.70;;
40116;SDS011;25829;50.228;18.936;2023-08-08T09:44:33;3.65;;;1.50;;
40116;SDS011;25829;50.228;18.936;2023-08-08T09:47:35;2.38;;;1.70;;
40116;SDS011;25829;50.228;18.936;2023-08-08T09:52:03;3.42;;;1.60;;
40116;SDS011;25829;50.228;18.936;2023-08-08T09:55:03;2.03;;;1.48;;
40116;SDS011;25829;50.228;18.936;2023-08-08T10:02:34;1.65;;;1.40;;
40116;SDS011;25829;50.228;18.936;2023-08-08T10:05:37;2.33;;;1.33;;
40116;SDS011;25829;50.228;18.936;2023-08-08T10:08:48;2.97;;;1.40;;
40116;SDS011;25829;50.228;18.936;2023-08-08T10:11:51;2.55;;;1.50;;
40116;SDS011;25829;50.228;18.936;2023-08-08T10:14:58;1.95;;;1.75;;
40116;SDS011;25829;50.228;18.936;2023-08-08T10:21:34;2.92;;;1.40;;
40116;SDS011;25829;50.228;18.936;2023-08-08T10:25:03;3.70;;;1.40;;
40116;SDS011;25829;50.228;18.936;2023-08-08T10:35:06;2.10;;;1.50;;
40116;SDS011;25829;50.228;18.936;2023-08-08T10:38:14;3.55;;;1.50;;
40116;SDS011;25829;50.228;18.936;2023-08-08T10:48:14;1.85;;;1.25;;
40116;SDS011;25829;50.228;18.936;2023-08-08T10:51:42;3.38;;;1.60;;
40116;SDS011;25829;50.228;18.936;2023-08-08T10:54:53;2.55;;;1.40;;
40116;SDS011;25829;50.228;18.936;2023-08-08T11:00:56;1.80;;;1.27;;
40116;SDS011;25829;50.228;18.936;2023-08-08T11:03:58;1.50;;;1.30;;
40116;SDS011;25829;50.228;18.936;2023-08-08T11:07:02;5.63;;;1.40;;
40116;SDS011;25829;50.228;18.936;2023-08-08T11:10:06;3.60;;;1.63;;
40116;SDS011;25829;50.228;18.936;2023-08-08T11:13:10;3.05;;;1.38;;
40116;SDS011;25829;50.228;18.936;2023-08-08T11:16:17;3.22;;;1.67;;
40116;SDS011;25829;50.228;18.936;2023-08-08T11:19:20;1.60;;;1.27;;
40116;SDS011;25829;50.228;18.936;2023-08-08T11:22:36;1.45;;;1.20;;
40116;SDS011;25829;50.228;18.936;2023-08-08T11:25:39;8.65;;;1.52;;
40116;SDS011;25829;50.228;18.936;2023-08-08T11:28:51;1.27;;;1.10;;
40116;SDS011;25829;50.228;18.936;2023-08-08T11:31:52;2.17;;;1.35;;
40116;SDS011;25829;50.228;18.936;2023-08-08T11:35:07;3.67;;;1.60;;
40116;SDS011;25829;50.228;18.936;2023-08-08T11:38:08;2.47;;;1.08;;
40116;SDS011;25829;50.228;18.936;2023-08-08T11:41:16;4.15;;;1.40;;
40116;SDS011;25829;50.228;18.936;2023-08-08T11:44:20;3.75;;;1.40;;
40116;SDS011;25829;50.228;18.936;2023-08-08T11:47:24;1.75;;;1.60;;
40116;SDS011;25829;50.228;18.936;2023-08-08T11:50:28;3.70;;;1.52;;
40116;SDS011;25829;50.228;18.936;2023-08-08T11:53:29;1.52;;;1.27;;
40116;SDS011;25829;50.228;18.936;2023-08-08T11:56:39;2.85;;;1.33;;
40116;SDS011;25829;50.228;18.936;2023-08-08T11:59:40;2.30;;;1.25;;
40116;SDS011;25829;50.228;18.936;2023-08-08T12:02:44;2.30;;;1.70;;
40116;SDS011;25829;50.228;18.936;2023-08-08T12:05:46;1.55;;;1.30;;
40116;SDS011;25829;50.228;18.936;2023-08-08T12:08:47;2.45;;;1.50;;
40116;SDS011;25829;50.228;18.936;2023-08-08T12:11:51;1.55;;;1.27;;
40116;SDS011;25829;50.228;18.936;2023-08-08T12:14:57;1.80;;;1.55;;
40116;SDS011;25829;50.228;18.936;2023-08-08T12:18:05;3.03;;;1.40;;
40116;SDS011;25829;50.228;18.936;2023-08-08T12:21:06;1.25;;;1.15;;
40116;SDS011;25829;50.228;18.936;2023-08-08T12:24:08;2.00;;;1.40;;
40116;SDS011;25829;50.228;18.936;2023-08-08T12:27:13;3.17;;;1.40;;
40116;SDS011;25829;50.228;18.936;2023-08-08T12:30:42;1.45;;;1.35;;
40116;SDS011;25829;50.228;18.936;2023-08-08T12:33:43;2.95;;;1.30;;
40116;SDS011;25829;50.228;18.936;2023-08-08T12:36:43;1.70;;;1.50;;
40116;SDS011;25829;50.228;18.936;2023-08-08T12:39:50;3.22;;;1.35;;
40116;SDS011;25829;50.228;18.936;2023-08-08T12:42:51;1.27;;;1.15;;
40116;SDS011;25829;50.228;18.936;2023-08-08T12:45:52;1.10;;;1.00;;
40116;SDS011;25829;50.228;18.936;2023-08-08T12:48:59;1.30;;;1.20;;
40116;SDS011;25829;50.228;18.936;2023-08-08T12:52:00;4.82;;;1.50;;
40116;SDS011;25829;50.228;18.936;2023-08-08T12:55:04;2.15;;;1.33;;
40116;SDS011;25829;50.228;18.936;2023-08-08T12:58:16;2.08;;;1.30;;
40116;SDS011;25829;50.228;18.936;2023-08-08T13:01:51;1.88;;;1.27;;
40116;SDS011;25829;50.228;18.936;2023-08-08T13:04:52;3.35;;;1.35;;
40116;SDS011;25829;50.228;18.936;2023-08-08T13:11:18;1.63;;;1.20;;
40116;SDS011;25829;50.228;18.936;2023-08-08T13:24:49;2.78;;;1.20;;
40116;SDS011;25829;50.228;18.936;2023-08-08T13:27:50;2.70;;;1.38;;
40116;SDS011;25829;50.228;18.936;2023-08-08T13:30:51;2.55;;;1.20;;
40116;SDS011;25829;50.228;18.936;2023-08-08T13:33:55;2.42;;;1.30;;
40116;SDS011;25829;50.228;18.936;2023-08-08T13:36:56;3.35;;;1.30;;
40116;SDS011;25829;50.228;18.936;2023-08-08T13:39:56;2.58;;;1.50;;
40116;SDS011;25829;50.228;18.936;2023-08-08T13:43:00;1.30;;;1.20;;
40116;SDS011;25829;50.228;18.936;2023-08-08T13:46:03;1.30;;;1.20;;
40116;SDS011;25829;50.228;18.936;2023-08-08T13:49:09;1.83;;;1.20;;
40116;SDS011;25829;50.228;18.936;2023-08-08T13:52:33;2.58;;;1.27;;
40116;SDS011;25829;50.228;18.936;2023-08-08T13:55:44;2.83;;;1.60;;
40116;SDS011;25829;50.228;18.936;2023-08-08T13:58:45;7.28;;;3.38;;
40116;SDS011;25829;50.228;18.936;2023-08-08T14:01:59;1.70;;;1.30;;
40116;SDS011;25829;50.228;18.936;2023-08-08T14:05:03;2.20;;;1.60;;
40116;SDS011;25829;50.228;18.936;2023-08-08T14:08:11;2.08;;;1.60;;
40116;SDS011;25829;50.228;18.936;2023-08-08T14:11:24;1.98;;;1.40;;
40116;SDS011;25829;50.228;18.936;2023-08-08T14:14:28;3.67;;;1.77;;
40116;SDS011;25829;50.228;18.936;2023-08-08T14:17:29;2.15;;;1.40;;
40116;SDS011;25829;50.228;18.936;2023-08-08T14:20:32;3.17;;;1.63;;
40116;SDS011;25829;50.228;18.936;2023-08-08T14:23:41;1.33;;;1.20;;
40116;SDS011;25829;50.228;18.936;2023-08-08T14:26:52;4.35;;;1.48;;
40116;SDS011;25829;50.228;18.936;2023-08-08T14:29:53;1.95;;;1.50;;
40116;SDS011;25829;50.228;18.936;2023-08-08T14:36:14;2.88;;;1.70;;
40116;SDS011;25829;50.228;18.936;2023-08-08T14:39:34;3.78;;;1.85;;
40116;SDS011;25829;50.228;18.936;2023-08-08T14:42:38;2.20;;;1.50;;
40116;SDS011;25829;50.228;18.936;2023-08-08T14:45:47;4.22;;;1.75;;
40116;SDS011;25829;50.228;18.936;2023-08-08T14:52:20;3.85;;;1.80;;
40116;SDS011;25829;50.228;18.936;2023-08-08T14:55:22;2.58;;;1.40;;
40116;SDS011;25829;50.228;18.936;2023-08-08T14:58:29;1.58;;;1.42;;
40116;SDS011;25829;50.228;18.936;2023-08-08T15:01:30;2.20;;;1.45;;
40116;SDS011;25829;50.228;18.936;2023-08-08T15:17:20;1.35;;;1.25;;
40116;SDS011;25829;50.228;18.936;2023-08-08T15:20:23;2.08;;;1.50;;
40116;SDS011;25829;50.228;18.936;2023-08-08T15:23:32;3.00;;;2.00;;
40116;SDS011;25829;50.228;18.936;2023-08-08T15:26:33;2.38;;;1.70;;
40116;SDS011;25829;50.228;18.936;2023-08-08T15:29:41;2.13;;;1.77;;
40116;SDS011;25829;50.228;18.936;2023-08-08T15:32:43;1.90;;;1.70;;
40116;SDS011;25829;50.228;18.936;2023-08-08T15:35:53;2.10;;;1.70;;
40116;SDS011;25829;50.228;18.936;2023-08-08T15:38:55;2.97;;;1.65;;
40116;SDS011;25829;50.228;18.936;2023-08-08T15:41:55;1.88;;;1.52;;
40116;SDS011;25829;50.228;18.936;2023-08-08T15:45:18;3.25;;;1.63;;
40116;SDS011;25829;50.228;18.936;2023-08-08T15:48:22;2.83;;;1.60;;
40116;SDS011;25829;50.228;18.936;2023-08-08T15:51:24;2.47;;;1.90;;
40116;SDS011;25829;50.228;18.936;2023-08-08T15:54:25;1.85;;;1.75;;
40116;SDS011;25829;50.228;18.936;2023-08-08T15:57:50;3.03;;;2.05;;
40116;SDS011;25829;50.228;18.936;2023-08-08T16:01:04;3.35;;;2.13;;
40116;SDS011;25829;50.228;18.936;2023-08-08T16:08:49;2.63;;;2.00;;
40116;SDS011;25829;50.228;18.936;2023-08-08T16:11:57;6.25;;;2.00;;
40116;SDS011;25829;50.228;18.936;2023-08-08T16:18:49;2.65;;;2.10;;
40116;SDS011;25829;50.228;18.936;2023-08-08T16:21:50;2.03;;;1.85;;
40116;SDS011;25829;50.228;18.936;2023-08-08T16:29:16;3.65;;;2.03;;
40116;SDS011;25829;50.228;18.936;2023-08-08T16:32:17;3.65;;;2.00;;
40116;SDS011;25829;50.228;18.936;2023-08-08T16:35:19;2.17;;;1.80;;
40116;SDS011;25829;50.228;18.936;2023-08-08T16:38:19;2.97;;;1.95;;
40116;SDS011;25829;50.228;18.936;2023-08-08T16:41:25;3.30;;;1.80;;
40116;SDS011;25829;50.228;18.936;2023-08-08T16:48:07;1.98;;;1.60;;
40116;SDS011;25829;50.228;18.936;2023-08-08T16:55:53;1.92;;;1.60;;
40116;SDS011;25829;50.228;18.936;2023-08-08T16:59:03;2.17;;;1.70;;
40116;SDS011;25829;50.228;18.936;2023-08-08T17:02:05;2.40;;;1.77;;
40116;SDS011;25829;50.228;18.936;2023-08-08T17:05:06;2.05;;;1.67;;
40116;SDS011;25829;50.228;18.936;2023-08-08T17:08:07;1.75;;;1.65;;
40116;SDS011;25829;50.228;18.936;2023-08-08T17:11:10;2.75;;;1.60;;
40116;SDS011;25829;50.228;18.936;2023-08-08T17:14:11;1.90;;;1.60;;
40116;SDS011;25829;50.228;18.936;2023-08-08T17:17:16;1.85;;;1.55;;
40116;SDS011;25829;50.228;18.936;2023-08-08T17:20:17;2.03;;;1.60;;
40116;SDS011;25829;50.228;18.936;2023-08-08T17:23:18;2.00;;;1.70;;
40116;SDS011;25829;50.228;18.936;2023-08-08T17:26:21;2.13;;;1.80;;
40116;SDS011;25829;50.228;18.936;2023-08-08T17:29:23;3.03;;;2.10;;
40116;SDS011;25829;50.228;18.936;2023-08-08T17:32:25;2.95;;;2.33;;
40116;SDS011;25829;50.228;18.936;2023-08-08T17:35:32;3.15;;;1.98;;
40116;SDS011;25829;50.228;18.936;2023-08-08T17:38:34;4.80;;;2.30;;
40116;SDS011;25829;50.228;18.936;2023-08-08T17:41:38;2.10;;;1.90;;
40116;SDS011;25829;50.228;18.936;2023-08-08T17:44:39;4.10;;;2.60;;
40116;SDS011;25829;50.228;18.936;2023-08-08T17:47:52;2.78;;;2.28;;
40116;SDS011;25829;50.228;18.936;2023-08-08T17:50:53;4.22;;;2.40;;
40116;SDS011;25829;50.228;18.936;2023-08-08T17:53:56;2.80;;;2.20;;
40116;SDS011;25829;50.228;18.936;2023-08-08T17:56:57;2.22;;;1.98;;
40116;SDS011;25829;50.228;18.936;2023-08-08T18:03:23;2.58;;;2.10;;
40116;SDS011;25829;50.228;18.936;2023-08-08T18:06:24;2.40;;;2.03;;
40116;SDS011;25829;50.228;18.936;2023-08-08T18:09:28;3.10;;;2.58;;
40116;SDS011;25829;50.228;18.936;2023-08-08T18:12:42;2.35;;;2.15;;
40116;SDS011;25829;50.228;18.936;2023-08-08T18:15:43;2.60;;;2.28;;
40116;SDS011;25829;50.228;18.936;2023-08-08T18:18:43;2.38;;;1.85;;
40116;SDS011;25829;50.228;18.936;2023-08-08T18:21:53;3.05;;;1.90;;
40116;SDS011;25829;50.228;18.936;2023-08-08T18:25:06;2.38;;;1.90;;
40116;SDS011;25829;50.228;18.936;2023-08-08T18:28:10;2.30;;;1.80;;
40116;SDS011;25829;50.228;18.936;2023-08-08T18:31:23;2.35;;;2.13;;
40116;SDS011;25829;50.228;18.936;2023-08-08T18:38:32;4.22;;;2.47;;
40116;SDS011;25829;50.228;18.936;2023-08-08T18:41:36;5.15;;;2.95;;
40116;SDS011;25829;50.228;18.936;2023-08-08T18:51:55;2.63;;;2.15;;
40116;SDS011;25829;50.228;18.936;2023-08-08T18:54:56;7.32;;;2.45;;
40116;SDS011;25829;50.228;18.936;2023-08-08T19:05:00;2.80;;;2.50;;
40116;SDS011;25829;50.228;18.936;2023-08-08T19:08:01;4.25;;;2.22;;
40116;SDS011;25829;50.228;18.936;2023-08-08T19:11:05;4.00;;;3.60;;
40116;SDS011;25829;50.228;18.936;2023-08-08T19:14:06;3.25;;;2.83;;
40116;SDS011;25829;50.228;18.936;2023-08-08T19:17:07;3.88;;;2.83;;
40116;SDS011;25829;50.228;18.936;2023-08-08T19:20:16;3.35;;;2.90;;
40116;SDS011;25829;50.228;18.936;2023-08-08T19:23:17;5.20;;;3.28;;
40116;SDS011;25829;50.228;18.936;2023-08-08T19:26:30;4.35;;;3.40;;
40116;SDS011;25829;50.228;18.936;2023-08-08T19:29:34;6.45;;;3.95;;
40116;SDS011;25829;50.228;18.936;2023-08-08T19:32:42;6.22;;;3.83;;
40116;SDS011;25829;50.228;18.936;2023-08-08T19:35:43;4.95;;;4.00;;
40116;SDS011;25829;50.228;18.936;2023-08-08T19:38:43;6.82;;;3.67;;
40116;SDS011;25829;50.228;18.936;2023-08-08T19:45:19;6.75;;;3.58;;
40116;SDS011;25829;50.228;18.936;2023-08-08T19:48:20;3.83;;;3.17;;
40116;SDS011;25829;50.228;18.936;2023-08-08T19:51:25;5.22;;;3.60;;
40116;SDS011;25829;50.228;18.936;2023-08-08T19:54:28;6.40;;;3.80;;
40116;SDS011;25829;50.228;18.936;2023-08-08T19:57:34;5.63;;;3.80;;
40116;SDS011;25829;50.228;18.936;2023-08-08T20:04:21;5.57;;;3.03;;
40116;SDS011;25829;50.228;18.936;2023-08-08T20:07:22;6.18;;;3.67;;
40116;SDS011;25829;50.228;18.936;2023-08-08T20:10:29;4.05;;;3.00;;
40116;SDS011;25829;50.228;18.936;2023-08-08T20:13:36;3.55;;;2.95;;
40116;SDS011;25829;50.228;18.936;2023-08-08T20:23:26;3.13;;;2.47;;
40116;SDS011;25829;50.228;18.936;2023-08-08T20:26:35;4.07;;;2.85;;
40116;SDS011;25829;50.228;18.936;2023-08-08T20:33:14;3.75;;;2.78;;
40116;SDS011;25829;50.228;18.936;2023-08-08T20:36:15;3.05;;;2.45;;
40116;SDS011;25829;50.228;18.936;2023-08-08T20:39:15;3.92;;;2.63;;
40116;SDS011;25829;50.228;18.936;2023-08-08T20:42:31;4.95;;;2.65;;
40116;SDS011;25829;50.228;18.936;2023-08-08T20:49:18;3.58;;;2.60;;
40116;SDS011;25829;50.228;18.936;2023-08-08T20:52:30;2.88;;;2.28;;
40116;SDS011;25829;50.228;18.936;2023-08-08T21:21:40;3.03;;;2.30;;
40116;SDS011;25829;50.228;18.936;2023-08-08T21:24:56;3.60;;;2.40;;
40116;SDS011;25829;50.228;18.936;2023-08-08T21:31:12;2.67;;;1.90;;
40116;SDS011;25829;50.228;18.936;2023-08-08T21:34:19;3.75;;;1.92;;
40116;SDS011;25829;50.228;18.936;2023-08-08T21:37:20;3.28;;;1.90;;
40116;SDS011;25829;50.228;18.936;2023-08-08T21:40:21;2.05;;;1.85;;
40116;SDS011;25829;50.228;18.936;2023-08-08T21:43:36;2.95;;;2.00;;
40116;SDS011;25829;50.228;18.936;2023-08-08T21:46:47;2.03;;;1.80;;
40116;SDS011;25829;50.228;18.936;2023-08-08T21:49:48;1.80;;;1.58;;
40116;SDS011;25829;50.228;18.936;2023-08-08T21:52:55;3.85;;;1.48;;
40116;SDS011;25829;50.228;18.936;2023-08-08T21:56:16;2.15;;;1.77;;
40116;SDS011;25829;50.228;18.936;2023-08-08T21:59:20;2.53;;;1.83;;
40116;SDS011;25829;50.228;18.936;2023-08-08T22:02:23;2.55;;;1.30;;
40116;SDS011;25829;50.228;18.936;2023-08-08T22:05:24;1.58;;;1.30;;
40116;SDS011;25829;50.228;18.936;2023-08-08T22:08:25;2.05;;;1.50;;
40116;SDS011;25829;50.228;18.936;2023-08-08T22:11:31;2.05;;;1.48;;
40116;SDS011;25829;50.228;18.936;2023-08-08T22:14:32;1.77;;;1.60;;
40116;SDS011;25829;50.228;18.936;2023-08-08T22:17:36;5.05;;;1.40;;
40116;SDS011;25829;50.228;18.936;2023-08-08T22:20:45;2.35;;;1.60;;
40116;SDS011;25829;50.228;18.936;2023-08-08T22:23:47;3.17;;;1.50;;
40116;SDS011;25829;50.228;18.936;2023-08-08T22:26:53;4.43;;;2.05;;
40116;SDS011;25829;50.228;18.936;2023-08-08T22:29:54;2.05;;;1.60;;
40116;SDS011;25829;50.228;18.936;2023-08-08T22:32:55;1.80;;;1.55;;
40116;SDS011;25829;50.228;18.936;2023-08-08T22:35:56;5.35;;;1.55;;
40116;SDS011;25829;50.228;18.936;2023-08-08T22:39:03;4.05;;;1.50;;
40116;SDS011;25829;50.228;18.936;2023-08-08T22:42:13;4.13;;;1.73;;
40116;SDS011;25829;50.228;18.936;2023-08-08T22:45:15;1.85;;;1.60;;
40116;SDS011;25829;50.228;18.936;2023-08-08T22:48:18;2.53;;;1.77;;
40116;SDS011;25829;50.228;18.936;2023-08-08T22:51:28;2.38;;;1.65;;
40116;SDS011;25829;50.228;18.936;2023-08-08T22:54:31;2.10;;;1.55;;
40116;SDS011;25829;50.228;18.936;2023-08-08T22:57:35;1.40;;;1.30;;
40116;SDS011;25829;50.228;18.936;2023-08-08T23:00:36;1.70;;;1.55;;
40116;SDS011;25829;50.228;18.936;2023-08-08T23:03:37;1.40;;;1.30;;
40116;SDS011;25829;50.228;18.936;2023-08-08T23:06:39;2.92;;;1.58;;
40116;SDS011;25829;50.228;18.936;2023-08-08T23:09:39;2.17;;;1.85;;
40116;SDS011;25829;50.228;18.936;2023-08-08T23:13:03;2.55;;;1.30;;
40116;SDS011;25829;50.228;18.936;2023-08-08T23:16:16;1.98;;;1.63;;
40116;SDS011;25829;50.228;18.936;2023-08-08T23:19:20;2.75;;;1.55;;
40116;SDS011;25829;50.228;18.936;2023-08-08T23:26:08;1.60;;;1.27;;
40116;SDS011;25829;50.228;18.936;2023-08-08T23:32:37;2.08;;;1.80;;
40116;SDS011;25829;50.228;18.936;2023-08-08T23:35:39;4.00;;;2.10;;
40116;SDS011;25829;50.228;18.936;2023-08-08T23:38:41;2.97;;;2.58;;
40116;SDS011;25829;50.228;18.936;2023-08-08T23:41:55;2.92;;;2.63;;
40116;SDS011;25829;50.228;18.936;2023-08-08T23:45:02;4.05;;;2.90;;